createdAt,value
2023-01-25T00:01:47.406Z,103199.81
2023-01-25T00:04:14.066Z,103198.50
2023-01-25T00:06:40.522Z,103201.19
2023-01-25T00:09:07.445Z,103195.13
2023-01-25T00:11:34.039Z,103191.78
2023-01-25T00:14:00.462Z,103181.16
2023-01-25T00:16:26.932Z,103167.88
2023-01-25T00:18:53.949Z,103164.53
2023-01-25T00:21:20.447Z,103156.78
2023-01-25T00:23:47.036Z,103147.19
2023-01-25T00:26:13.669Z,103148.41
2023-01-25T00:28:40.037Z,103149.38
2023-01-25T00:31:06.738Z,103145.84
2023-01-25T00:33:33.273Z,103140.63
2023-01-25T00:36:00.101Z,103129.56
2023-01-25T00:38:27.024Z,103127.88
2023-01-25T00:40:53.967Z,103117.09
2023-01-25T00:43:20.271Z,103121.81
2023-01-25T00:45:47.017Z,103107.69
2023-01-25T00:48:13.504Z,103107.00
2023-01-25T00:50:39.963Z,103099.09
2023-01-25T00:53:06.537Z,103094.91
2023-01-25T00:55:33.178Z,103082.47
2023-01-25T00:57:59.639Z,103083.66
2023-01-25T01:00:26.287Z,103072.22
2023-01-25T01:02:53.166Z,103058.94
2023-01-25T01:05:19.818Z,103072.59
2023-01-25T01:07:46.689Z,103065.72
2023-01-25T01:10:13.392Z,103072.28
2023-01-25T01:12:39.842Z,103069.59
2023-01-25T01:15:06.987Z,103058.31
2023-01-25T01:17:33.936Z,103063.69
2023-01-25T01:20:00.807Z,103057.00
2023-01-25T01:22:27.597Z,103057.16
2023-01-25T01:24:54.441Z,103059.22
2023-01-25T01:27:21.003Z,103070.00
2023-01-25T01:29:47.680Z,103062.25
2023-01-25T01:32:14.694Z,103064.31
2023-01-25T01:34:41.491Z,103069.00
2023-01-25T01:37:08.069Z,103064.81
2023-01-25T01:39:34.565Z,103065.00
2023-01-25T01:42:01.021Z,103063.50
2023-01-25T01:44:27.441Z,103068.88
2023-01-25T01:46:53.934Z,103069.06
2023-01-25T01:49:20.792Z,103073.97
2023-01-25T01:51:47.352Z,103072.47
2023-01-25T01:54:13.798Z,103072.63
2023-01-25T01:56:40.456Z,103075.66
2023-01-25T01:59:06.986Z,103073.19
2023-01-25T02:01:34.346Z,103060.88
2023-01-25T02:04:01.196Z,103060.22
2023-01-25T02:06:30.577Z,103068.47
2023-01-25T02:08:57.515Z,103065.31
2023-01-25T02:11:24.684Z,103063.97
2023-01-25T02:13:52.319Z,103064.16
2023-01-25T02:16:19.495Z,103065.16
2023-01-25T02:18:46.466Z,103064.66
2023-01-25T02:21:13.343Z,103056.09
2023-01-25T02:23:40.220Z,103061.63
2023-01-25T02:26:07.298Z,103065.50
2023-01-25T02:28:34.105Z,103058.78
2023-01-25T02:31:00.907Z,103056.25
2023-01-25T02:33:28.043Z,103056.63
2023-01-25T02:35:54.728Z,103061.34
2023-01-25T02:38:21.933Z,103058.00
2023-01-25T02:40:48.508Z,103057.31
2023-01-25T02:43:15.173Z,103057.69
2023-01-25T02:45:41.717Z,103058.84
2023-01-25T02:48:08.219Z,103049.25
2023-01-25T02:50:35.190Z,103046.94
2023-01-25T02:53:01.607Z,103051.63
2023-01-25T02:55:28.069Z,103049.97
2023-01-25T02:57:54.490Z,103051.16
2023-01-25T03:00:21.412Z,103044.44
2023-01-25T03:02:47.934Z,103040.06
2023-01-25T03:05:14.637Z,103033.19
2023-01-25T03:07:41.535Z,103034.34
2023-01-25T03:10:08.650Z,103029.34
2023-01-25T03:12:35.454Z,103034.03
2023-01-25T03:15:03.120Z,103028.00
2023-01-25T03:17:30.970Z,103034.56
2023-01-25T03:19:57.442Z,103024.13
2023-01-25T03:22:24.010Z,103020.78
2023-01-25T03:24:50.662Z,103025.50
2023-01-25T03:27:17.299Z,103022.97
2023-01-25T03:29:44.494Z,103009.84
2023-01-25T03:32:11.314Z,103013.72
2023-01-25T03:34:38.003Z,103013.94
2023-01-25T03:37:04.666Z,103005.19
2023-01-25T03:39:31.355Z,103001.00
2023-01-25T03:41:57.806Z,103002.16
2023-01-25T03:44:24.528Z,102996.97
2023-01-25T03:46:51.513Z,102990.09
2023-01-25T03:49:18.195Z,102984.03
2023-01-25T03:51:44.780Z,102993.25
2023-01-25T03:54:11.809Z,102991.59
2023-01-25T03:56:38.441Z,102988.25
2023-01-25T03:59:06.336Z,102987.56
2023-01-25T04:01:32.778Z,102984.06
2023-01-25T04:03:59.614Z,102989.94
2023-01-25T04:06:26.198Z,102981.03
2023-01-25T04:08:52.582Z,102973.31
2023-01-25T04:11:19.129Z,102967.22
2023-01-25T04:13:45.657Z,102970.94
2023-01-25T04:16:12.460Z,102964.91
2023-01-25T04:18:39.234Z,102967.75
2023-01-25T04:21:05.692Z,102957.16
2023-01-25T04:23:32.043Z,102955.66
2023-01-25T04:25:58.838Z,102958.34
2023-01-25T04:28:25.593Z,102947.09
2023-01-25T04:30:52.071Z,102953.63
2023-01-25T04:33:18.618Z,102950.31
2023-01-25T04:35:45.102Z,102947.63
2023-01-25T04:38:11.636Z,102940.75
2023-01-25T04:40:38.378Z,102940.06
2023-01-25T04:43:05.159Z,102932.34
2023-01-25T04:45:31.768Z,102935.19
2023-01-25T04:47:58.185Z,102930.00
2023-01-25T04:50:24.645Z,102922.09
2023-01-25T04:52:51.280Z,102911.53
2023-01-25T04:55:18.279Z,102913.56
2023-01-25T04:57:44.811Z,102916.41
2023-01-25T05:00:11.728Z,102913.88
2023-01-25T05:02:38.199Z,102913.41
2023-01-25T05:05:04.595Z,102926.63
2023-01-25T05:07:31.438Z,102918.06
2023-01-25T05:09:57.919Z,102919.09
2023-01-25T05:12:24.648Z,102938.06
2023-01-25T05:14:51.397Z,102928.50
2023-01-25T05:17:17.949Z,102925.97
2023-01-25T05:19:44.339Z,102927.16
2023-01-25T05:22:10.750Z,102927.31
2023-01-25T05:24:37.467Z,102931.16
2023-01-25T05:27:04.076Z,102936.53
2023-01-25T05:29:30.570Z,102930.50
2023-01-25T05:31:57.670Z,102925.31
2023-01-25T05:34:24.421Z,102927.13
2023-01-25T05:36:50.942Z,102922.94
2023-01-25T05:39:17.792Z,102918.59
2023-01-25T05:41:44.571Z,102915.22
2023-01-25T05:44:11.181Z,102912.53
2023-01-25T05:46:37.950Z,102909.34
2023-01-25T05:49:04.319Z,102899.47
2023-01-25T05:51:31.155Z,102895.28
2023-01-25T05:53:57.836Z,102908.00
2023-01-25T05:56:24.244Z,102908.00
2023-01-25T05:58:50.614Z,102905.47
2023-01-25T06:01:17.192Z,102904.81
2023-01-25T06:03:43.828Z,102904.13
2023-01-25T06:06:10.546Z,102907.84
2023-01-25T06:08:36.958Z,102908.84
2023-01-25T06:11:03.919Z,102909.00
2023-01-25T06:13:30.367Z,102910.19
2023-01-25T06:15:57.247Z,102912.88
2023-01-25T06:18:23.798Z,102908.50
2023-01-25T06:20:50.565Z,102908.84
2023-01-25T06:23:17.275Z,102903.63
2023-01-25T06:25:43.648Z,102900.09
2023-01-25T06:28:10.060Z,102898.44
2023-01-25T06:30:36.465Z,102902.97
2023-01-25T06:33:02.847Z,102895.25
2023-01-25T06:35:29.282Z,102893.38
2023-01-25T06:37:55.630Z,102885.69
2023-01-25T06:40:21.964Z,102878.47
2023-01-25T06:42:48.578Z,102887.84
2023-01-25T06:45:15.117Z,102881.97
2023-01-25T06:47:41.558Z,102873.28
2023-01-25T06:50:07.879Z,102873.44
2023-01-25T06:52:34.499Z,102872.56
2023-01-25T06:55:01.185Z,102868.72
2023-01-25T06:57:27.832Z,102869.88
2023-01-25T06:59:54.284Z,102871.72
2023-01-25T07:02:20.736Z,102858.31
2023-01-25T07:04:47.267Z,102853.28
2023-01-25T07:07:13.882Z,102847.91
2023-01-25T07:09:40.314Z,102848.94
2023-01-25T07:12:07.076Z,102848.06
2023-01-25T07:14:33.468Z,102846.41
2023-01-25T07:17:01.609Z,102847.56
2023-01-25T07:19:30.053Z,102854.78
2023-01-25T07:21:56.422Z,102848.56
2023-01-25T07:24:23.468Z,102842.53
2023-01-25T07:26:50.309Z,102832.81
2023-01-25T07:29:17.199Z,102835.50
2023-01-25T07:31:43.644Z,102838.34
2023-01-25T07:34:10.485Z,102824.09
2023-01-25T07:36:37.058Z,102831.31
2023-01-25T07:39:03.388Z,102828.78
2023-01-25T07:41:29.751Z,102820.75
2023-01-25T07:43:56.192Z,102818.22
2023-01-25T07:46:22.972Z,102826.44
2023-01-25T07:48:49.349Z,102814.03
2023-01-25T07:51:15.885Z,102816.03
2023-01-25T07:53:42.208Z,102820.56
2023-01-25T07:56:08.695Z,102814.50
2023-01-25T07:58:35.157Z,102816.38
2023-01-25T08:01:01.554Z,102818.22
2023-01-25T08:03:27.933Z,102820.03
2023-01-25T08:05:54.608Z,102820.22
2023-01-25T08:08:21.146Z,102807.00
2023-01-25T08:10:48.141Z,102808.81
2023-01-25T08:13:14.513Z,102801.78
2023-01-25T08:15:40.855Z,102802.78
2023-01-25T08:18:07.343Z,102805.47
2023-01-25T08:20:33.870Z,102802.25
2023-01-25T08:23:30.536Z,102802.25
2023-01-25T08:25:47.526Z,102797.06
2023-01-25T08:28:14.014Z,102795.41
2023-01-25T08:30:52.027Z,102792.72
2023-01-25T08:33:22.948Z,102782.16
2023-01-25T08:35:49.659Z,102775.97
2023-01-25T08:38:16.109Z,102778.66
2023-01-25T08:40:42.574Z,102776.13
2023-01-25T08:43:09.589Z,102780.66
2023-01-25T08:45:35.979Z,102784.34
2023-01-25T08:48:02.707Z,102784.34
2023-01-25T08:50:29.722Z,102780.81
2023-01-25T08:52:56.198Z,102781.97
2023-01-25T08:55:22.607Z,102780.31
2023-01-25T08:57:49.709Z,102784.81
2023-01-25T09:00:16.275Z,102781.31
2023-01-25T09:02:43.162Z,102777.78
2023-01-25T09:05:09.498Z,102776.13
2023-01-25T09:07:35.886Z,102780.63
2023-01-25T09:10:02.351Z,102784.31
2023-01-25T09:12:28.951Z,102792.34
2023-01-25T09:14:55.838Z,102783.66
2023-01-25T09:17:22.605Z,102781.13
2023-01-25T09:22:15.575Z,102782.97
2023-01-25T09:24:41.979Z,102785.81
2023-01-25T09:27:08.585Z,102782.97
2023-01-25T09:29:35.907Z,102787.66
2023-01-25T09:32:03.178Z,102785.16
2023-01-25T09:34:29.830Z,102789.66
2023-01-25T09:36:56.524Z,102788.84
2023-01-25T09:39:23.398Z,102780.09
2023-01-25T09:41:49.793Z,102781.13
2023-01-25T09:44:16.545Z,102771.25
2023-01-25T09:46:43.077Z,102766.03
2023-01-25T09:49:11.575Z,102767.03
2023-01-25T09:51:39.136Z,102765.34
2023-01-25T09:54:05.535Z,102770.88
2023-01-25T09:56:32.181Z,102762.00
2023-01-25T09:58:58.817Z,102761.16
2023-01-25T10:01:37.727Z,102761.16
2023-01-25T10:04:05.183Z,102761.31
2023-01-25T10:06:31.714Z,102759.66
2023-01-25T10:08:58.202Z,102748.09
2023-01-25T10:11:24.569Z,102755.31
2023-01-25T10:13:50.976Z,102750.97
2023-01-25T10:16:25.617Z,102742.06
2023-01-25T10:18:53.209Z,102743.91
2023-01-25T10:21:20.225Z,102747.59
2023-01-25T10:23:47.519Z,102740.56
2023-01-25T10:26:14.553Z,102734.34
2023-01-25T10:28:41.079Z,102730.00
2023-01-25T10:31:08.106Z,102723.78
2023-01-25T10:33:36.650Z,102717.78
2023-01-25T10:36:04.362Z,102710.59
2023-01-25T10:38:31.152Z,102705.41
2023-01-25T10:40:57.992Z,102707.22
2023-01-25T10:43:24.531Z,102694.69
2023-01-25T10:45:51.436Z,102689.47
2023-01-25T10:48:18.178Z,102689.47
2023-01-25T10:50:45.064Z,102686.97
2023-01-25T10:53:14.382Z,102681.59
2023-01-25T10:55:41.189Z,102673.56
2023-01-25T10:58:08.038Z,102662.16
2023-01-25T11:00:34.791Z,102654.31
2023-01-25T11:03:01.357Z,102643.63
2023-01-25T11:05:31.027Z,102640.94
2023-01-25T11:07:57.884Z,102639.25
2023-01-25T11:10:24.815Z,102635.91
2023-01-25T11:12:51.639Z,102623.38
2023-01-25T11:15:18.271Z,102620.00
2023-01-25T11:17:45.111Z,102622.69
2023-01-25T11:20:12.198Z,102636.06
2023-01-25T11:22:39.289Z,102623.69
2023-01-25T11:25:05.790Z,102627.38
2023-01-25T11:27:32.085Z,102624.69
2023-01-25T11:29:59.184Z,102614.97
2023-01-25T11:32:25.662Z,102610.63
2023-01-25T11:34:52.679Z,102607.09
2023-01-25T11:37:19.438Z,102603.75
2023-01-25T11:39:45.850Z,102596.56
2023-01-25T11:42:12.374Z,102592.19
2023-01-25T11:44:39.276Z,102586.84
2023-01-25T11:47:05.912Z,102595.06
2023-01-25T11:49:32.411Z,102592.38
2023-01-25T11:51:58.870Z,102587.19
2023-01-25T11:54:25.383Z,102575.78
2023-01-25T11:56:52.186Z,102574.78
2023-01-25T11:59:27.132Z,102577.66
2023-01-25T12:01:53.442Z,102578.63
2023-01-25T12:04:20.144Z,102572.47
2023-01-25T12:06:46.693Z,102568.13
2023-01-25T12:09:13.376Z,102559.91
2023-01-25T12:11:39.928Z,102546.50
2023-01-25T12:14:06.240Z,102546.72
2023-01-25T12:16:32.541Z,102534.28
2023-01-25T12:18:58.902Z,102529.78
2023-01-25T12:21:31.236Z,102524.59
2023-01-25T12:23:58.146Z,102524.59
2023-01-25T12:26:24.861Z,102517.56
2023-01-25T12:28:51.164Z,102514.91
2023-01-25T12:31:17.563Z,102506.03
2023-01-25T12:33:43.994Z,102500.00
2023-01-25T12:36:10.369Z,102495.47
2023-01-25T12:38:37.639Z,102495.47
2023-01-25T12:41:03.992Z,102492.97
2023-01-25T12:43:30.278Z,102493.81
2023-01-25T12:45:57.274Z,102485.91
2023-01-25T12:48:24.127Z,102482.41
2023-01-25T12:50:50.753Z,102479.91
2023-01-25T12:53:17.543Z,102470.22
2023-01-25T12:55:44.658Z,102468.50
2023-01-25T12:58:11.618Z,102468.50
2023-01-25T13:00:38.524Z,102460.66
2023-01-25T13:03:06.107Z,102464.16
2023-01-25T13:05:33.316Z,102457.16
2023-01-25T13:08:00.406Z,102455.47
2023-01-25T13:10:26.819Z,102449.28
2023-01-25T13:12:53.635Z,102446.59
2023-01-25T13:15:20.541Z,102449.44
2023-01-25T13:17:47.086Z,102449.28
2023-01-25T13:20:13.794Z,102437.88
2023-01-25T13:22:42.823Z,102435.41
2023-01-25T13:25:10.061Z,102435.41
2023-01-25T13:27:36.950Z,102425.53
2023-01-25T13:30:03.887Z,102425.69
2023-01-25T13:32:30.523Z,102422.19
2023-01-25T13:34:57.236Z,102426.69
2023-01-25T13:37:23.729Z,102419.69
2023-01-25T13:39:50.678Z,102414.31
2023-01-25T13:42:17.363Z,102410.81
2023-01-25T13:44:44.589Z,102403.78
2023-01-25T13:47:11.390Z,102414.66
2023-01-25T13:49:38.332Z,102419.84
2023-01-25T13:52:05.426Z,102414.66
2023-01-25T13:54:32.376Z,102413.84
2023-01-25T13:56:58.689Z,102405.81
2023-01-25T13:59:25.173Z,102402.28
2023-01-25T14:01:51.747Z,102397.09
2023-01-25T14:04:18.940Z,102391.75
2023-01-25T14:06:45.456Z,102387.56
2023-01-25T14:09:14.871Z,102393.78
2023-01-25T14:11:42.659Z,102386.72
2023-01-25T14:14:10.692Z,102384.03
2023-01-25T14:16:38.003Z,102380.56
2023-01-25T14:19:04.793Z,102377.03
2023-01-25T14:21:31.563Z,102366.50
2023-01-25T14:23:58.016Z,102368.34
2023-01-25T14:26:24.558Z,102366.50
2023-01-25T14:28:59.569Z,102374.69
2023-01-25T14:31:29.008Z,102356.81
2023-01-25T14:33:55.547Z,102346.25
2023-01-25T14:36:25.446Z,102345.44
2023-01-25T14:38:52.159Z,102341.91
2023-01-25T14:41:18.908Z,102341.91
2023-01-25T14:43:45.678Z,102341.06
2023-01-25T14:46:12.637Z,102342.09
2023-01-25T14:48:39.078Z,102330.56
2023-01-25T14:51:05.921Z,102326.03
2023-01-25T14:53:32.327Z,102327.91
2023-01-25T14:55:59.327Z,102319.19
2023-01-25T14:58:25.765Z,102319.88
2023-01-25T15:00:52.179Z,102319.88
2023-01-25T15:03:18.954Z,102316.50
2023-01-25T15:05:45.411Z,102305.81
2023-01-25T15:08:12.162Z,102303.97
2023-01-25T15:10:39.111Z,102292.44
2023-01-25T15:13:14.145Z,102295.28
2023-01-25T15:15:41.515Z,102286.44
2023-01-25T15:18:08.517Z,102283.75
2023-01-25T15:20:35.293Z,102283.75
2023-01-25T15:23:01.658Z,102285.59
2023-01-25T15:25:28.539Z,102278.56
2023-01-25T15:27:55.509Z,102277.72
2023-01-25T15:30:22.228Z,102272.38
2023-01-25T15:32:48.667Z,102260.81
2023-01-25T15:35:15.352Z,102249.31
2023-01-25T15:37:41.830Z,102246.63
2023-01-25T15:40:08.756Z,102243.13
2023-01-25T15:42:35.731Z,102244.13
2023-01-25T15:45:02.738Z,102242.47
2023-01-25T15:47:29.144Z,102237.13
2023-01-25T15:49:55.778Z,102229.25
2023-01-25T15:52:22.129Z,102231.94
2023-01-25T15:54:55.963Z,102223.06
2023-01-25T15:57:27.904Z,102227.59
2023-01-25T15:59:54.802Z,102225.91
2023-01-25T16:02:21.542Z,102225.91
2023-01-25T16:04:48.453Z,102218.72
2023-01-25T16:07:14.802Z,102215.22
2023-01-25T16:09:41.343Z,102223.44
2023-01-25T16:12:07.843Z,102222.59
2023-01-25T16:14:34.393Z,102217.41
2023-01-25T16:17:01.718Z,102213.91
2023-01-25T16:19:28.657Z,102219.06
2023-01-25T16:21:57.369Z,102227.28
2023-01-25T16:24:23.770Z,102217.56
2023-01-25T16:26:50.637Z,102215.91
2023-01-25T16:29:17.363Z,102223.06
2023-01-25T16:31:43.982Z,102226.75
2023-01-25T16:34:10.592Z,102220.59
2023-01-25T16:36:39.452Z,102209.91
2023-01-25T16:39:06.057Z,102208.22
2023-01-25T16:41:32.393Z,102205.53
2023-01-25T16:43:59.147Z,102198.53
2023-01-25T16:46:25.678Z,102204.72
2023-01-25T16:48:52.357Z,102197.50
2023-01-25T16:51:18.952Z,102192.16
2023-01-25T16:53:45.700Z,102193.19
2023-01-25T16:56:12.729Z,102195.19
2023-01-25T16:58:39.597Z,102186.34
2023-01-25T17:01:05.996Z,102178.31
2023-01-25T17:03:32.485Z,102165.94
2023-01-25T17:05:58.926Z,102166.75
2023-01-25T17:08:25.613Z,102167.78
2023-01-25T17:10:52.336Z,102161.63
2023-01-25T17:13:18.867Z,102163.28
2023-01-25T17:15:45.886Z,102158.09
2023-01-25T17:18:12.710Z,102160.09
2023-01-25T17:20:39.124Z,102159.94
2023-01-25T17:23:05.673Z,102156.44
2023-01-25T17:25:33.005Z,102152.06
2023-01-25T17:27:59.531Z,102148.59
2023-01-25T17:30:25.908Z,102151.25
2023-01-25T17:32:52.911Z,102148.75
2023-01-25T17:35:19.408Z,102145.22
2023-01-25T17:37:46.297Z,102139.88
2023-01-25T17:40:13.334Z,102139.88
2023-01-25T17:42:40.189Z,102132.88
2023-01-25T17:45:06.785Z,102128.53
2023-01-25T17:47:33.445Z,102131.03
2023-01-25T17:50:00.052Z,102130.38
2023-01-25T17:52:26.739Z,102129.56
2023-01-25T17:54:53.246Z,102126.03
2023-01-25T17:57:19.866Z,102115.34
2023-01-25T17:59:46.395Z,102117.16
2023-01-25T18:02:12.826Z,102114.50
2023-01-25T18:04:39.571Z,102112.66
2023-01-25T18:07:06.201Z,102112.84
2023-01-25T18:09:32.821Z,102112.00
2023-01-25T18:11:59.298Z,102107.66
2023-01-25T18:14:26.002Z,102115.66
2023-01-25T18:16:52.485Z,102105.16
2023-01-25T18:19:19.420Z,102093.63
2023-01-25T18:21:46.574Z,102090.78
2023-01-25T18:24:13.197Z,102090.97
2023-01-25T18:26:39.784Z,102085.78
2023-01-25T18:29:06.180Z,102092.78
2023-01-25T18:31:32.892Z,102082.09
2023-01-25T18:33:59.963Z,102078.59
2023-01-25T18:36:27.147Z,102065.59
2023-01-25T18:38:53.768Z,102066.22
2023-01-25T18:41:20.737Z,102064.56
2023-01-25T18:43:47.700Z,102065.59
2023-01-25T18:46:14.508Z,102058.56
2023-01-25T18:48:41.040Z,102047.72
2023-01-25T18:51:07.517Z,102046.19
2023-01-25T18:53:34.326Z,102052.38
2023-01-25T18:56:00.740Z,102048.03
2023-01-25T18:58:27.668Z,102041.84
2023-01-25T19:00:54.226Z,102037.34
2023-01-25T19:03:20.768Z,102034.84
2023-01-25T19:05:47.264Z,102032.19
2023-01-25T19:08:14.140Z,102035.88
2023-01-25T19:10:41.291Z,102043.72
2023-01-25T19:13:07.835Z,102035.03
2023-01-25T19:15:34.698Z,102028.00
2023-01-25T19:18:01.210Z,102031.50
2023-01-25T19:20:28.014Z,102035.19
2023-01-25T19:22:54.464Z,102033.38
2023-01-25T19:25:20.972Z,102032.50
2023-01-25T19:27:47.329Z,102035.19
2023-01-25T19:30:14.288Z,102030.69
2023-01-25T19:32:40.757Z,102025.50
2023-01-25T19:35:08.181Z,102018.50
2023-01-25T19:37:35.364Z,102012.31
2023-01-25T19:40:02.008Z,102021.19
2023-01-25T19:42:28.436Z,102015.84
2023-01-25T19:44:54.866Z,102008.81
2023-01-25T19:47:21.469Z,102006.16
2023-01-25T19:49:48.469Z,102004.47
2023-01-25T19:52:15.807Z,102009.81
2023-01-25T19:54:42.304Z,102001.16
2023-01-25T19:57:09.443Z,102002.81
2023-01-25T19:59:36.145Z,101997.63
2023-01-25T20:02:02.602Z,101991.47
2023-01-25T20:04:29.463Z,101995.81
2023-01-25T20:06:56.351Z,101985.28
2023-01-25T20:09:23.173Z,101978.09
2023-01-25T20:11:49.804Z,101978.94
2023-01-25T20:14:16.425Z,101977.25
2023-01-25T20:16:42.793Z,101976.41
2023-01-25T20:19:09.277Z,101972.94
2023-01-25T20:21:35.718Z,101974.75
2023-01-25T20:24:02.507Z,101963.22
2023-01-25T20:26:29.344Z,101959.75
2023-01-25T20:28:55.757Z,101963.44
2023-01-25T20:31:22.388Z,101957.06
2023-01-25T20:33:48.829Z,101964.25
2023-01-25T20:36:15.633Z,101967.06
2023-01-25T20:38:42.076Z,101956.38
2023-01-25T20:41:08.496Z,101960.06
2023-01-25T20:43:35.278Z,101954.72
2023-01-25T20:46:01.790Z,101947.72
2023-01-25T20:48:28.255Z,101941.38
2023-01-25T20:50:55.068Z,101939.72
2023-01-25T20:53:21.644Z,101942.38
2023-01-25T20:55:48.059Z,101931.69
2023-01-25T20:58:14.807Z,101932.72
2023-01-25T21:00:41.447Z,101931.03
2023-01-25T21:03:08.069Z,101936.38
2023-01-25T21:05:34.653Z,101929.38
2023-01-25T21:08:01.174Z,101930.22
2023-01-25T21:10:27.750Z,101925.88
2023-01-25T21:12:54.338Z,101927.72
2023-01-25T21:15:21.193Z,101928.56
2023-01-25T21:17:48.253Z,101926.06
2023-01-25T21:20:15.203Z,101922.53
2023-01-25T21:22:42.199Z,101926.06
2023-01-25T21:25:08.793Z,101915.38
2023-01-25T21:27:35.508Z,101919.03
2023-01-25T21:30:01.886Z,101920.72
2023-01-25T21:32:28.420Z,101920.88
2023-01-25T21:34:54.846Z,101909.34
2023-01-25T21:37:21.489Z,101904.00
2023-01-25T21:39:48.294Z,101912.00
2023-01-25T21:42:14.981Z,101903.34
2023-01-25T21:44:42.275Z,101904.16
2023-01-25T21:47:28.848Z,101900.69
2023-01-25T21:49:55.650Z,101900.84
2023-01-25T21:52:22.234Z,101893.69
2023-01-25T21:54:48.659Z,101899.03
2023-01-25T21:57:15.433Z,101892.00
2023-01-25T21:59:41.892Z,101892.84
2023-01-25T22:02:08.908Z,101894.03
2023-01-25T22:04:35.364Z,101897.34
2023-01-25T22:07:01.945Z,101888.50
2023-01-25T22:09:28.258Z,101882.50
2023-01-25T22:11:54.777Z,101874.31
2023-01-25T22:14:21.385Z,101886.00
2023-01-25T22:16:47.784Z,101879.81
2023-01-25T22:19:14.378Z,101887.03
2023-01-25T22:21:41.364Z,101874.47
2023-01-25T22:24:07.731Z,101870.31
2023-01-25T22:26:34.849Z,101875.66
2023-01-25T22:29:01.385Z,101875.66
2023-01-25T22:31:27.946Z,101869.50
2023-01-25T22:33:55.109Z,101869.50
2023-01-25T22:36:21.512Z,101871.34
2023-01-25T22:38:48.251Z,101869.69
2023-01-25T22:41:14.851Z,101867.00
2023-01-25T22:43:41.358Z,101868.00
2023-01-25T22:46:07.725Z,101876.00
2023-01-25T22:48:34.458Z,101871.50
2023-01-25T22:51:00.931Z,101867.00
2023-01-25T22:53:27.699Z,101854.63
2023-01-25T22:55:54.248Z,101856.31
2023-01-25T22:58:20.952Z,101862.84
2023-01-25T23:00:47.668Z,101859.16
2023-01-25T23:03:15.280Z,101847.63
2023-01-25T23:05:42.305Z,101838.59
2023-01-25T23:08:08.949Z,101832.44
2023-01-25T23:10:35.560Z,101838.13
2023-01-25T23:13:02.373Z,101836.31
2023-01-25T23:15:29.596Z,101829.09
2023-01-25T23:17:56.174Z,101817.59
2023-01-25T23:20:22.813Z,101813.25
2023-01-25T23:22:49.282Z,101810.56
2023-01-25T23:25:15.836Z,101802.56
2023-01-25T23:27:42.610Z,101800.75
2023-01-25T23:30:09.866Z,101802.78
2023-01-25T23:32:37.090Z,101801.94
2023-01-25T23:35:03.709Z,101799.25
2023-01-25T23:37:30.181Z,101803.56
2023-01-25T23:39:56.582Z,101796.59
2023-01-25T23:42:23.047Z,101793.91
2023-01-25T23:44:49.588Z,101798.41
2023-01-25T23:47:15.959Z,101780.69
2023-01-25T23:49:42.524Z,101778.91
2023-01-25T23:52:09.507Z,101780.69
2023-01-25T23:54:35.828Z,101787.91
2023-01-25T23:57:02.277Z,101783.53
2023-01-25T23:59:29.107Z,101780.88
